Time;durP1;ratioP1;P1;durP2;ratioP2;P2;SDS_P1;SDS_P2;PMS_P1;PMS_P2;Temp;Humidity;BMP_temperature;BMP_pressure;BME280_temperature;BME280_humidity;BME280_pressure;Samples;Min_cycle;Max_cycle;Signal;HPM_P1;HPM_P2
2023/08/26 00:01:56;;;;;;;26.80;23.95;;;18.20;99.90;;;;;;6131961;23;20017;-86
2023/08/26 00:04:22;;;;;;;22.88;15.98;;;18.20;99.90;;;;;;6156036;23;20013;-86
2023/08/26 00:06:48;;;;;;;27.83;24.80;;;18.20;99.90;;;;;;6131816;23;20047;-86
2023/08/26 00:09:14;;;;;;;26.88;24.23;;;18.20;99.90;;;;;;6157241;23;20008;-86
2023/08/26 00:11:41;;;;;;;18.80;13.05;;;18.20;99.90;;;;;;6183579;23;20025;-86
2023/08/26 00:14:07;;;;;;;26.73;23.83;;;18.10;99.90;;;;;;6156587;23;20016;-86
2023/08/26 00:16:32;;;;;;;25.58;22.98;;;18.10;99.90;;;;;;6131816;23;20016;-86
2023/08/26 00:19:02;;;;;;;25.65;23.00;;;18.10;99.90;;;;;;6132106;23;20017;-86
2023/08/26 00:21:28;;;;;;;24.55;22.15;;;18.00;99.90;;;;;;6156561;23;20020;-86
2023/08/26 00:23:54;;;;;;;24.30;21.70;;;18.00;99.90;;;;;;6132158;23;20017;-86
2023/08/26 00:26:20;;;;;;;19.67;12.32;;;18.00;99.90;;;;;;6156321;23;20021;-86
2023/08/26 00:28:46;;;;;;;30.88;20.98;;;17.90;99.90;;;;;;6156797;23;20037;-86
2023/08/26 00:31:12;;;;;;;19.30;12.68;;;17.90;99.90;;;;;;6157644;23;20017;-86
2023/08/26 00:33:37;;;;;;;22.40;20.13;;;17.90;99.90;;;;;;6132127;23;20027;-86
2023/08/26 00:36:03;;;;;;;25.35;21.00;;;17.90;99.90;;;;;;6156041;23;20062;-86
2023/08/26 00:38:29;;;;;;;20.67;18.48;;;17.90;99.90;;;;;;6132734;23;20013;-86
2023/08/26 00:40:55;;;;;;;24.40;18.35;;;18.00;99.90;;;;;;6156746;23;20009;-86
2023/08/26 00:43:20;;;;;;;21.40;19.20;;;17.90;99.90;;;;;;6156891;23;20458;-86
2023/08/26 00:45:48;;;;;;;22.42;19.70;;;17.90;99.90;;;;;;6132461;23;20013;-86
2023/08/26 00:48:15;;;;;;;21.70;19.38;;;17.90;99.90;;;;;;6130308;23;20347;-86
2023/08/26 00:50:43;;;;;;;23.02;18.75;;;17.90;99.90;;;;;;6131032;23;20643;-86
2023/08/26 00:53:13;;;;;;;23.30;19.40;;;17.90;99.90;;;;;;6155948;23;20021;-86
2023/08/26 00:55:43;;;;;;;20.40;18.25;;;17.90;99.90;;;;;;6155911;23;20476;-86
2023/08/26 00:58:09;;;;;;;20.80;18.55;;;17.90;99.90;;;;;;6156957;23;20088;-85
2023/08/26 01:00:39;;;;;;;19.40;10.60;;;17.90;99.90;;;;;;6132166;23;20013;-86
2023/08/26 01:03:05;;;;;;;20.95;18.38;;;17.80;99.90;;;;;;6156175;23;20354;-86
2023/08/26 01:05:31;;;;;;;16.52;9.48;;;17.80;99.90;;;;;;6156607;23;20455;-86
2023/08/26 01:07:59;;;;;;;20.48;17.90;;;17.70;99.90;;;;;;6156719;23;20024;-86
2023/08/26 01:10:40;;;;;;;14.93;10.63;;;17.70;99.90;;;;;;6131554;23;20009;-86
2023/08/26 01:13:11;;;;;;;18.42;15.57;;;17.60;99.90;;;;;;6156404;23;20084;-85
2023/08/26 01:15:41;;;;;;;16.88;15.00;;;17.60;99.90;;;;;;6132151;23;20128;-85
2023/08/26 01:18:11;;;;;;;17.02;15.23;;;17.50;99.90;;;;;;6132007;23;20048;-85
2023/08/26 01:20:37;;;;;;;16.65;14.20;;;17.50;99.90;;;;;;6132181;23;20063;-85
2023/08/26 01:23:06;;;;;;;14.48;7.50;;;17.50;99.90;;;;;;6155540;23;20013;-85
2023/08/26 01:25:32;;;;;;;15.20;12.57;;;17.40;99.90;;;;;;6156385;23;20013;-85
2023/08/26 01:27:58;;;;;;;20.35;14.55;;;17.30;99.90;;;;;;6156900;23;20576;-85
2023/08/26 01:30:26;;;;;;;14.13;7.45;;;17.30;99.90;;;;;;6131402;23;20014;-85
2023/08/26 01:33:00;;;;;;;15.65;12.82;;;17.20;99.90;;;;;;6132043;23;20013;-85
2023/08/26 01:35:36;;;;;;;13.85;7.50;;;17.20;99.90;;;;;;6156149;23;20462;-85
2023/08/26 01:38:03;;;;;;;16.42;13.95;;;17.20;99.90;;;;;;6156082;23;20009;-85
2023/08/26 01:40:29;;;;;;;19.75;14.38;;;17.20;99.90;;;;;;6132012;23;20017;-85
2023/08/26 01:42:55;;;;;;;15.15;8.80;;;17.20;99.90;;;;;;6131536;23;20386;-85
2023/08/26 01:45:21;;;;;;;15.85;13.80;;;17.10;99.90;;;;;;6157547;23;20095;-85
2023/08/26 01:47:47;;;;;;;11.70;7.78;;;17.10;99.90;;;;;;6133029;23;20024;-86
2023/08/26 01:50:13;;;;;;;12.48;6.78;;;17.10;99.90;;;;;;6133602;23;20010;-85
2023/08/26 01:52:38;;;;;;;15.55;12.68;;;17.10;99.90;;;;;;6157978;23;20083;-85
2023/08/26 01:55:04;;;;;;;17.95;14.30;;;17.10;99.90;;;;;;6158486;23;20017;-85
2023/08/26 01:57:30;;;;;;;15.75;13.45;;;17.00;99.90;;;;;;6157315;23;20024;-85
2023/08/26 01:59:56;;;;;;;16.65;13.40;;;17.10;99.90;;;;;;6157924;23;20017;-85
2023/08/26 02:02:21;;;;;;;17.75;13.00;;;17.00;99.90;;;;;;6133616;23;20355;-85
2023/08/26 02:04:47;;;;;;;12.73;7.50;;;17.00;99.90;;;;;;6184640;23;20462;-85
2023/08/26 02:07:12;;;;;;;12.57;7.82;;;16.90;99.90;;;;;;6157381;23;20013;-85
2023/08/26 02:09:38;;;;;;;11.85;7.68;;;16.80;99.90;;;;;;6133239;23;20084;-85
2023/08/26 02:12:04;;;;;;;17.40;14.15;;;16.70;99.90;;;;;;6158499;23;20005;-85
2023/08/26 02:14:30;;;;;;;15.65;13.95;;;16.80;99.90;;;;;;6133329;23;20023;-85
2023/08/26 02:16:55;;;;;;;17.17;14.27;;;16.80;99.90;;;;;;6157359;23;20020;-85
2023/08/26 02:19:21;;;;;;;17.27;13.82;;;16.80;99.90;;;;;;6158030;23;20093;-85
2023/08/26 02:21:46;;;;;;;15.10;12.38;;;16.80;99.90;;;;;;6157463;23;20036;-85
2023/08/26 02:24:12;;;;;;;17.27;11.55;;;16.80;99.90;;;;;;6157756;23;20019;-85
2023/08/26 02:26:37;;;;;;;15.75;12.77;;;16.80;99.90;;;;;;6133877;23;20012;-84
2023/08/26 02:29:04;;;;;;;14.10;12.60;;;16.80;99.90;;;;;;6132731;23;20451;-85
2023/08/26 02:31:29;;;;;;;15.77;11.90;;;16.80;99.90;;;;;;6158111;23;20020;-85
2023/08/26 02:33:55;;;;;;;16.25;7.07;;;16.80;99.90;;;;;;6158132;23;20013;-85
2023/08/26 02:36:20;;;;;;;12.88;6.75;;;16.70;99.90;;;;;;6132905;23;20009;-85
2023/08/26 02:38:46;;;;;;;15.65;12.70;;;16.60;99.90;;;;;;6157442;23;20108;-85
2023/08/26 02:41:12;;;;;;;14.98;8.32;;;16.70;99.90;;;;;;6158378;23;20047;-85
2023/08/26 02:43:38;;;;;;;17.42;13.30;;;16.60;99.90;;;;;;6132896;23;20009;-85
2023/08/26 02:46:03;;;;;;;13.43;8.05;;;16.70;99.90;;;;;;6158143;23;20009;-85
2023/08/26 02:48:30;;;;;;;14.85;12.43;;;16.70;99.90;;;;;;6157118;23;20625;-85
2023/08/26 02:50:59;;;;;;;16.30;13.60;;;16.70;99.90;;;;;;6157450;23;20111;-85
2023/08/26 02:53:26;;;;;;;17.20;12.73;;;16.70;99.90;;;;;;6158242;23;20013;-85
2023/08/26 02:55:52;;;;;;;15.45;13.35;;;16.70;99.90;;;;;;6157418;23;20351;-85
2023/08/26 02:58:18;;;;;;;14.77;12.88;;;16.70;99.90;;;;;;6157336;23;20009;-85
2023/08/26 03:00:44;;;;;;;13.98;6.35;;;16.70;99.90;;;;;;6133425;23;20083;-85
2023/08/26 03:03:10;;;;;;;15.55;7.57;;;16.70;99.90;;;;;;6157827;23;20462;-85
2023/08/26 03:05:35;;;;;;;15.48;12.57;;;16.60;99.90;;;;;;6157663;23;20078;-85
2023/08/26 03:08:01;;;;;;;16.27;12.70;;;16.60;99.90;;;;;;6157446;23;20009;-85
2023/08/26 03:10:26;;;;;;;16.08;12.50;;;16.70;99.90;;;;;;6157461;23;20013;-85
2023/08/26 03:12:54;;;;;;;15.95;12.65;;;16.70;99.90;;;;;;6133484;23;20045;-85
2023/08/26 03:15:19;;;;;;;10.68;5.97;;;16.70;99.90;;;;;;6157370;23;20020;-85
2023/08/26 03:17:45;;;;;;;14.55;12.38;;;16.60;99.90;;;;;;6156783;23;20056;-85
2023/08/26 03:20:11;;;;;;;13.07;11.60;;;16.60;99.90;;;;;;6157270;23;20020;-85
2023/08/26 03:22:37;;;;;;;12.40;5.47;;;16.60;99.90;;;;;;6157875;23;20328;-85
2023/08/26 03:25:02;;;;;;;14.43;11.63;;;16.60;99.90;;;;;;6156856;23;20013;-85
2023/08/26 03:27:29;;;;;;;16.45;11.40;;;16.60;99.90;;;;;;6156361;23;20354;-86
2023/08/26 03:29:54;;;;;;;13.07;6.45;;;16.60;99.90;;;;;;6131273;23;20045;-85
2023/08/26 03:32:20;;;;;;;15.30;11.32;;;16.50;99.90;;;;;;6156673;23;20017;-86
2023/08/26 03:34:46;;;;;;;12.50;6.35;;;16.50;99.90;;;;;;6156158;23;20024;-86
2023/08/26 03:37:11;;;;;;;10.57;5.90;;;16.40;99.90;;;;;;6130973;23;20064;-86
2023/08/26 03:39:37;;;;;;;15.52;11.98;;;16.40;99.90;;;;;;6132300;23;20013;-86
2023/08/26 03:42:03;;;;;;;15.20;11.98;;;16.40;99.90;;;;;;6157845;23;20008;-86
2023/08/26 03:44:28;;;;;;;17.13;11.52;;;16.40;99.90;;;;;;6156962;23;20067;-86
2023/08/26 03:46:54;;;;;;;16.85;10.98;;;16.40;99.90;;;;;;6157595;23;20474;-86
2023/08/26 03:49:19;;;;;;;13.18;5.53;;;16.40;99.90;;;;;;6156443;23;20029;-86
2023/08/26 03:51:45;;;;;;;13.85;10.27;;;16.30;99.90;;;;;;6183881;23;20089;-86
2023/08/26 03:54:11;;;;;;;13.25;6.50;;;16.30;99.90;;;;;;6156748;23;20009;-86
2023/08/26 03:56:36;;;;;;;14.48;9.70;;;16.30;99.90;;;;;;6156846;23;20012;-86
2023/08/26 03:59:02;;;;;;;12.98;10.82;;;16.30;99.90;;;;;;6156236;23;20011;-86
2023/08/26 04:01:30;;;;;;;13.23;9.85;;;16.30;99.90;;;;;;6157929;23;20075;-86
2023/08/26 04:03:56;;;;;;;13.30;6.05;;;16.30;99.90;;;;;;6156844;23;20020;-86
2023/08/26 04:06:22;;;;;;;13.73;9.75;;;16.30;99.90;;;;;;6157252;23;20005;-86
2023/08/26 04:08:48;;;;;;;11.63;5.75;;;16.30;99.90;;;;;;6156195;23;20009;-86
2023/08/26 04:11:16;;;;;;;13.70;10.98;;;16.30;99.90;;;;;;6156812;23;20471;-86
2023/08/26 04:13:42;;;;;;;14.55;11.35;;;16.30;99.90;;;;;;6157394;23;20216;-86
2023/08/26 04:16:08;;;;;;;10.52;6.47;;;16.30;99.90;;;;;;6157128;23;20602;-86
2023/08/26 04:18:34;;;;;;;13.10;6.90;;;16.30;99.90;;;;;;6155944;23;20502;-86
2023/08/26 04:20:59;;;;;;;15.55;12.68;;;16.20;99.90;;;;;;6157386;23;20036;-86
2023/08/26 04:23:25;;;;;;;12.48;11.13;;;16.30;99.90;;;;;;6157155;23;20477;-86
2023/08/26 04:25:52;;;;;;;15.38;11.50;;;16.30;99.90;;;;;;6156800;23;20071;-86
2023/08/26 04:28:17;;;;;;;14.77;12.55;;;16.30;99.90;;;;;;6131579;23;20451;-86
2023/08/26 04:30:45;;;;;;;13.80;11.10;;;16.30;99.90;;;;;;6156552;23;20016;-86
2023/08/26 04:33:11;;;;;;;18.67;6.45;;;16.30;99.90;;;;;;6157181;23;20020;-86
2023/08/26 04:35:37;;;;;;;16.15;11.93;;;16.30;99.90;;;;;;6156579;23;20024;-86
2023/08/26 04:38:03;;;;;;;16.08;11.98;;;16.30;99.90;;;;;;6155752;23;20009;-86
2023/08/26 04:40:29;;;;;;;15.68;12.07;;;16.30;99.90;;;;;;6157088;23;20468;-86
2023/08/26 04:42:55;;;;;;;14.35;12.02;;;16.30;99.90;;;;;;6156694;23;20020;-86
2023/08/26 04:45:22;;;;;;;11.05;5.32;;;16.30;99.90;;;;;;6131773;23;20156;-86
2023/08/26 04:47:48;;;;;;;12.68;7.50;;;16.20;99.90;;;;;;6156261;23;20016;-86
2023/08/26 04:50:14;;;;;;;16.20;12.77;;;16.20;99.90;;;;;;6132433;23;20016;-86
2023/08/26 04:52:41;;;;;;;15.65;13.35;;;16.30;99.90;;;;;;6155878;23;20019;-86
2023/08/26 04:55:07;;;;;;;11.15;6.63;;;16.30;99.90;;;;;;6157158;23;20112;-86
2023/08/26 04:57:33;;;;;;;16.27;12.98;;;16.20;99.90;;;;;;6131185;23;20009;-86
2023/08/26 04:59:59;;;;;;;12.27;6.57;;;16.30;99.90;;;;;;6156580;23;20075;-86
2023/08/26 05:02:24;;;;;;;16.85;13.18;;;16.30;99.90;;;;;;6156963;23;20013;-86
2023/08/26 05:04:50;;;;;;;16.23;13.00;;;16.30;99.90;;;;;;6156268;23;20540;-86
2023/08/26 05:07:16;;;;;;;14.52;12.23;;;16.30;99.90;;;;;;6131566;23;20020;-85
2023/08/26 05:09:42;;;;;;;14.25;6.88;;;16.30;99.90;;;;;;6155897;23;20009;-86
2023/08/26 05:12:08;;;;;;;9.75;5.05;;;16.30;99.90;;;;;;6156697;23;20080;-86
2023/08/26 05:14:34;;;;;;;15.10;11.55;;;16.30;99.90;;;;;;6156934;23;20010;-86
2023/08/26 05:16:59;;;;;;;11.13;6.30;;;16.30;99.90;;;;;;6156308;23;20092;-86
2023/08/26 05:19:25;;;;;;;14.77;11.05;;;16.30;99.90;;;;;;6156171;23;20408;-86
2023/08/26 05:21:50;;;;;;;13.90;7.13;;;16.30;99.90;;;;;;6158808;23;20013;-86
2023/08/26 05:24:16;;;;;;;12.40;6.65;;;16.20;99.90;;;;;;6158837;23;20024;-86
2023/08/26 05:26:43;;;;;;;16.45;11.35;;;16.20;99.90;;;;;;6158595;23;20013;-84
2023/08/26 05:29:09;;;;;;;14.57;11.43;;;16.20;99.90;;;;;;6157988;23;20067;-84
2023/08/26 05:31:35;;;;;;;16.08;11.82;;;16.30;99.90;;;;;;6158238;23;20092;-84
2023/08/26 05:34:01;;;;;;;13.45;6.20;;;16.30;99.90;;;;;;6159281;23;20017;-85
2023/08/26 05:36:26;;;;;;;15.07;11.85;;;16.20;99.90;;;;;;6134243;23;20016;-85
2023/08/26 05:38:52;;;;;;;15.60;12.07;;;16.20;99.90;;;;;;6157948;23;20008;-84
2023/08/26 05:41:17;;;;;;;16.58;12.18;;;16.30;99.90;;;;;;6158199;23;20012;-85
2023/08/26 05:43:43;;;;;;;15.45;12.88;;;16.30;99.90;;;;;;6158829;23;20582;-85
2023/08/26 05:46:09;;;;;;;14.90;7.15;;;16.30;99.90;;;;;;6158045;23;20067;-84
2023/08/26 05:48:35;;;;;;;12.27;6.47;;;16.30;99.90;;;;;;6133495;23;20100;-85
2023/08/26 05:51:01;;;;;;;19.73;13.82;;;16.30;99.90;;;;;;6133378;23;20040;-85
2023/08/26 05:53:28;;;;;;;17.35;14.77;;;16.30;99.90;;;;;;6158429;23;20005;-85
2023/08/26 05:55:54;;;;;;;20.58;14.05;;;16.30;99.90;;;;;;6133994;23;20013;-84
2023/08/26 05:58:20;;;;;;;15.57;13.80;;;16.30;99.90;;;;;;6157648;23;20019;-85
2023/08/26 06:00:47;;;;;;;14.60;8.10;;;16.30;99.90;;;;;;6158123;23;20069;-85
2023/08/26 06:03:13;;;;;;;18.63;15.77;;;16.30;99.90;;;;;;6133593;23;20068;-85
2023/08/26 06:05:38;;;;;;;15.77;9.20;;;16.30;99.90;;;;;;6184550;23;20016;-85
2023/08/26 06:08:05;;;;;;;14.57;8.27;;;16.20;99.90;;;;;;6132811;23;20467;-85
2023/08/26 06:10:31;;;;;;;18.02;16.08;;;16.20;99.90;;;;;;6133385;23;20017;-85
2023/08/26 06:12:57;;;;;;;21.23;16.98;;;16.20;99.90;;;;;;6158406;23;20098;-85
2023/08/26 06:15:23;;;;;;;15.75;9.25;;;16.20;99.90;;;;;;6158393;23;20009;-84
2023/08/26 06:17:49;;;;;;;19.83;15.60;;;16.10;99.90;;;;;;6132145;23;20009;-84
2023/08/26 06:20:14;;;;;;;15.57;8.40;;;16.10;99.90;;;;;;6162126;23;20017;-82
2023/08/26 06:22:41;;;;;;;20.25;15.90;;;16.00;99.90;;;;;;6162017;23;20048;-85
2023/08/26 06:25:07;;;;;;;20.10;17.20;;;16.00;99.90;;;;;;6160932;23;20019;-84
2023/08/26 06:27:33;;;;;;;19.88;17.40;;;16.10;99.90;;;;;;6158304;23;20092;-84
2023/08/26 06:30:03;;;;;;;15.15;9.90;;;16.10;99.90;;;;;;6157935;23;20024;-85
2023/08/26 06:32:29;;;;;;;15.40;9.27;;;16.10;99.90;;;;;;6133598;23;20355;-85
2023/08/26 06:34:54;;;;;;;22.90;18.77;;;16.10;99.90;;;;;;6158524;23;20005;-85
2023/08/26 06:37:20;;;;;;;21.70;19.40;;;16.10;99.90;;;;;;6157575;23;20515;-85
2023/08/26 06:39:45;;;;;;;22.15;19.80;;;16.10;99.90;;;;;;6133420;23;20013;-85
2023/08/26 06:42:11;;;;;;;21.75;19.48;;;16.20;99.90;;;;;;6157939;23;20354;-85
2023/08/26 06:44:37;;;;;;;20.85;11.02;;;16.20;99.90;;;;;;6157760;23;20044;-85
2023/08/26 06:47:03;;;;;;;16.67;10.82;;;16.10;99.90;;;;;;6132977;23;20017;-85
2023/08/26 06:49:28;;;;;;;19.05;11.18;;;16.10;99.90;;;;;;6157326;23;20040;-85
2023/08/26 06:51:54;;;;;;;17.70;10.65;;;16.10;99.90;;;;;;6156663;23;20370;-85
2023/08/26 06:54:19;;;;;;;16.13;9.43;;;16.10;99.90;;;;;;6158186;23;20009;-85
2023/08/26 06:56:45;;;;;;;19.98;16.15;;;16.10;99.90;;;;;;6158144;23;20020;-85
2023/08/26 06:59:11;;;;;;;17.75;14.80;;;16.10;99.90;;;;;;6156735;23;20017;-85
2023/08/26 07:01:37;;;;;;;13.57;6.22;;;16.10;99.90;;;;;;6184535;23;20088;-85
2023/08/26 07:04:07;;;;;;;22.25;13.73;;;16.10;99.90;;;;;;6158129;23;20032;-85
2023/08/26 07:06:33;;;;;;;22.75;16.27;;;16.10;99.90;;;;;;6157441;23;20009;-85
2023/08/26 07:08:59;;;;;;;16.05;8.40;;;16.00;99.90;;;;;;6132924;23;20013;-85
2023/08/26 07:11:25;;;;;;;21.75;16.60;;;16.00;99.90;;;;;;6156850;23;20419;-85
2023/08/26 07:13:51;;;;;;;18.65;16.25;;;15.90;99.90;;;;;;6157675;23;20148;-85
2023/08/26 07:16:17;;;;;;;21.45;17.50;;;16.00;99.90;;;;;;6157809;23;20052;-85
2023/08/26 07:18:43;;;;;;;18.00;10.35;;;16.00;99.90;;;;;;6156770;23;20016;-85
2023/08/26 07:21:08;;;;;;;20.65;18.45;;;15.90;99.90;;;;;;6156674;23;20409;-84
2023/08/26 07:23:34;;;;;;;21.90;18.13;;;15.90;99.90;;;;;;6157680;23;20016;-85
2023/08/26 07:26:01;;;;;;;17.17;8.40;;;15.80;99.90;;;;;;6131711;23;20028;-85
2023/08/26 07:28:29;;;;;;;16.88;10.90;;;15.80;99.90;;;;;;6156447;23;20017;-85
2023/08/26 07:31:02;;;;;;;21.55;19.02;;;15.80;99.90;;;;;;6156733;23;20016;-86
2023/08/26 07:33:28;;;;;;;17.08;10.50;;;15.70;99.90;;;;;;6133195;23;20061;-85
2023/08/26 07:36:05;;;;;;;21.85;17.77;;;15.70;99.90;;;;;;6132473;23;20005;-85
2023/08/26 07:38:30;;;;;;;22.55;19.00;;;15.70;99.90;;;;;;6131481;23;20017;-85
2023/08/26 07:40:56;;;;;;;19.65;11.52;;;15.80;99.90;;;;;;6156212;23;20020;-86
2023/08/26 07:43:21;;;;;;;19.05;11.27;;;15.70;99.90;;;;;;6156950;23;20036;-86
2023/08/26 07:45:47;;;;;;;20.17;18.13;;;15.70;99.90;;;;;;6157063;23;20017;-85
2023/08/26 07:48:12;;;;;;;21.10;18.02;;;15.70;99.90;;;;;;6156585;23;20463;-86
2023/08/26 07:50:38;;;;;;;17.50;10.30;;;15.80;99.90;;;;;;6157079;23;20013;-86
2023/08/26 07:53:05;;;;;;;17.95;10.77;;;15.70;99.90;;;;;;6156733;23;20012;-85
2023/08/26 07:55:31;;;;;;;21.85;12.70;;;15.70;99.90;;;;;;6155977;23;20056;-86
2023/08/26 07:57:57;;;;;;;19.55;17.55;;;15.80;99.90;;;;;;6132013;23;20453;-86
2023/08/26 08:00:22;;;;;;;15.35;9.73;;;15.80;99.90;;;;;;6183182;23;20051;-86
2023/08/26 08:02:48;;;;;;;18.73;16.30;;;15.80;99.90;;;;;;6157220;23;20017;-86
2023/08/26 08:05:14;;;;;;;16.20;9.60;;;15.90;99.90;;;;;;6157346;23;20020;-86
2023/08/26 08:07:39;;;;;;;21.20;17.25;;;16.00;99.90;;;;;;6132427;23;20044;-86
2023/08/26 08:10:06;;;;;;;19.73;17.60;;;16.00;99.90;;;;;;6157010;23;20017;-86
2023/08/26 08:12:32;;;;;;;18.42;16.52;;;16.10;99.90;;;;;;6132179;23;20080;-86
2023/08/26 08:14:57;;;;;;;21.75;16.00;;;16.30;99.90;;;;;;6156975;23;20461;-86
2023/08/26 08:17:23;;;;;;;17.00;15.27;;;16.40;99.90;;;;;;6157185;23;20019;-86
2023/08/26 08:19:49;;;;;;;18.45;15.57;;;16.40;99.90;;;;;;6155496;23;20023;-86
2023/08/26 08:22:16;;;;;;;14.98;9.98;;;16.50;99.90;;;;;;6156550;23;20020;-86
2023/08/26 08:24:42;;;;;;;17.77;15.15;;;16.40;99.90;;;;;;6132814;23;20009;-86
2023/08/26 08:27:08;;;;;;;19.15;17.17;;;16.50;99.90;;;;;;6156687;23;20040;-86
2023/08/26 08:29:34;;;;;;;14.98;8.82;;;16.60;99.90;;;;;;6156459;23;20327;-86
2023/08/26 08:32:01;;;;;;;16.65;14.75;;;16.50;99.90;;;;;;6156622;23;20061;-86
2023/08/26 08:34:27;;;;;;;17.25;10.35;;;16.60;99.90;;;;;;6157308;23;20013;-86
2023/08/26 08:36:52;;;;;;;20.20;14.75;;;16.70;99.90;;;;;;6132708;23;20016;-86
2023/08/26 08:39:18;;;;;;;20.52;15.35;;;16.70;99.90;;;;;;6156390;23;20402;-86
2023/08/26 08:41:48;;;;;;;16.63;14.52;;;16.80;99.90;;;;;;6156476;23;20017;-86
2023/08/26 08:44:14;;;;;;;11.57;6.85;;;16.80;99.90;;;;;;6157277;23;20063;-86
2023/08/26 08:46:40;;;;;;;17.65;14.30;;;16.80;99.90;;;;;;6156648;23;20478;-86
2023/08/26 08:49:07;;;;;;;15.43;8.85;;;16.80;99.90;;;;;;6156253;23;20017;-86
2023/08/26 08:51:34;;;;;;;15.15;9.00;;;16.80;99.90;;;;;;6155660;23;20406;-86
2023/08/26 08:54:02;;;;;;;17.17;12.95;;;16.90;99.90;;;;;;6132314;23;20013;-86
2023/08/26 08:56:31;;;;;;;20.20;8.77;;;17.00;99.90;;;;;;6158851;23;20505;-86
2023/08/26 08:58:59;;;;;;;17.30;13.20;;;17.10;99.90;;;;;;6133519;23;20019;-86
2023/08/26 09:01:25;;;;;;;16.23;12.77;;;17.10;99.90;;;;;;6158786;23;20009;-86
2023/08/26 09:03:51;;;;;;;12.65;8.48;;;17.20;99.90;;;;;;6158394;23;20590;-86
2023/08/26 09:06:20;;;;;;;18.00;12.50;;;17.30;99.90;;;;;;6158786;23;20041;-86
2023/08/26 09:08:45;;;;;;;14.43;11.35;;;17.40;99.90;;;;;;6158474;23;20463;-86
2023/08/26 09:11:15;;;;;;;15.07;12.55;;;17.50;99.90;;;;;;6134065;23;20021;-86
2023/08/26 09:13:40;;;;;;;12.02;8.57;;;17.70;99.90;;;;;;6133626;23;20044;-86
2023/08/26 09:16:06;;;;;;;11.68;7.35;;;17.80;99.90;;;;;;6158943;23;20009;-86
2023/08/26 09:18:42;;;;;;;15.00;10.63;;;17.80;99.90;;;;;;6157454;23;20009;-86
2023/08/26 09:21:11;;;;;;;14.57;9.85;;;17.70;99.90;;;;;;6158182;23;20013;-86
2023/08/26 09:23:43;;;;;;;14.88;10.68;;;17.70;99.90;;;;;;6158408;23;20016;-86
2023/08/26 09:26:09;;;;;;;;;;;17.70;99.90;;;;;;6183769;23;20088;-86
2023/08/26 09:28:36;;;;;;;14.77;9.95;;;17.60;99.90;;;;;;6133680;23;20001;-86
2023/08/26 09:31:03;;;;;;;13.45;8.95;;;17.70;99.90;;;;;;6158097;23;20017;-86
2023/08/26 09:33:29;;;;;;;14.80;8.40;;;17.90;99.90;;;;;;6158419;23;20013;-86
2023/08/26 09:35:54;;;;;;;11.50;5.45;;;18.00;99.90;;;;;;6133882;23;20020;-86
2023/08/26 09:38:21;;;;;;;11.77;7.68;;;18.10;99.90;;;;;;6158274;23;20019;-86
2023/08/26 09:40:47;;;;;;;12.35;7.25;;;18.10;99.90;;;;;;6158235;23;20055;-86
2023/08/26 09:43:13;;;;;;;14.93;6.75;;;18.10;99.90;;;;;;6134166;23;20017;-86
2023/08/26 09:45:39;;;;;;;11.60;4.82;;;18.20;99.90;;;;;;6133954;23;20052;-86
2023/08/26 09:48:07;;;;;;;13.13;5.68;;;18.20;99.90;;;;;;6133275;23;20021;-86
2023/08/26 09:50:33;;;;;;;12.20;6.60;;;18.20;99.90;;;;;;6157839;23;20017;-86
2023/08/26 09:52:59;;;;;;;13.18;5.70;;;18.30;99.90;;;;;;6133677;23;20070;-86
2023/08/26 09:55:25;;;;;;;12.30;5.45;;;18.40;99.90;;;;;;6158710;23;20451;-86
2023/08/26 09:57:52;;;;;;;13.63;5.22;;;18.50;99.90;;;;;;6133947;23;20013;-86
2023/08/26 10:00:20;;;;;;;10.90;4.65;;;18.60;99.90;;;;;;6157607;23;20009;-86
2023/08/26 10:02:58;;;;;;;11.48;4.40;;;18.70;99.90;;;;;;6158091;23;20017;-86
2023/08/26 10:05:26;;;;;;;13.02;4.90;;;18.80;99.90;;;;;;6158331;23;20013;-86
2023/08/26 10:07:52;;;;;;;11.77;4.13;;;18.80;99.90;;;;;;6133408;23;20023;-86
2023/08/26 10:10:24;;;;;;;9.02;2.95;;;18.80;99.90;;;;;;6158113;23;20012;-86
2023/08/26 10:12:56;;;;;;;7.50;2.50;;;18.90;99.90;;;;;;6158303;23;20017;-86
2023/08/26 10:15:26;;;;;;;11.52;3.63;;;19.00;99.90;;;;;;6133511;23;20013;-86
2023/08/26 10:17:53;;;;;;;11.65;3.70;;;19.10;99.90;;;;;;6157576;23;20060;-86
2023/08/26 10:20:19;;;;;;;9.40;3.05;;;19.30;99.90;;;;;;6132222;23;20013;-86
2023/08/26 10:22:45;;;;;;;8.15;2.58;;;19.30;99.90;;;;;;6133113;23;20016;-86
2023/08/26 10:25:12;;;;;;;8.93;3.03;;;19.20;99.90;;;;;;6158130;23;20017;-86
2023/08/26 10:27:38;;;;;;;9.57;3.30;;;19.10;99.90;;;;;;6157746;23;20013;-86
2023/08/26 10:30:06;;;;;;;12.13;3.15;;;19.10;99.90;;;;;;6158291;23;20021;-86
2023/08/26 10:32:43;;;;;;;11.90;3.47;;;19.10;99.90;;;;;;6133670;23;20394;-87
2023/08/26 10:35:14;;;;;;;8.95;3.90;;;19.20;99.90;;;;;;6158694;23;20100;-86
2023/08/26 10:37:40;;;;;;;12.30;3.75;;;19.10;99.90;;;;;;6132870;23;20099;-86
2023/08/26 10:40:12;;;;;;;10.88;3.38;;;19.10;99.90;;;;;;6133429;23;20028;-86
2023/08/26 10:42:58;;;;;;;10.00;3.67;;;19.10;99.90;;;;;;6132881;23;20013;-87
2023/08/26 10:45:24;;;;;;;8.18;3.10;;;19.10;99.90;;;;;;6157962;23;20092;-86
2023/08/26 10:47:54;;;;;;;9.95;3.10;;;19.30;99.90;;;;;;6157103;23;20041;-86
2023/08/26 10:50:28;;;;;;;8.45;2.38;;;19.50;99.90;;;;;;6157355;23;20503;-87
2023/08/26 10:53:13;;;;;;;7.25;2.55;;;19.70;99.90;;;;;;6133036;23;20020;-87
2023/08/26 10:55:38;;;;;;;7.05;2.35;;;19.90;99.90;;;;;;6157858;23;20009;-87
2023/08/26 10:58:09;;;;;;;7.20;1.83;;;20.00;99.90;;;;;;6132969;23;20354;-87
2023/08/26 11:00:37;;;;;;;4.97;1.80;;;20.10;99.90;;;;;;6132557;23;20027;-87
2023/08/26 11:03:03;;;;;;;6.63;1.67;;;20.10;99.90;;;;;;6157680;23;20028;-87
2023/08/26 11:05:29;;;;;;;4.85;1.73;;;20.10;99.90;;;;;;6133175;23;20013;-87
2023/08/26 11:07:56;;;;;;;7.03;1.83;;;20.30;99.90;;;;;;6157175;23;20141;-87
2023/08/26 11:10:39;;;;;;;8.38;2.13;;;20.40;99.90;;;;;;6132722;23;20021;-87
2023/08/26 11:13:05;;;;;;;7.15;1.80;;;20.50;99.90;;;;;;6132747;23;20009;-87
2023/08/26 11:15:36;;;;;;;7.75;2.05;;;20.60;99.50;;;;;;6157683;23;20607;-87
2023/08/26 11:18:02;;;;;;;6.47;2.17;;;20.70;99.90;;;;;;6132291;23;20016;-87
2023/08/26 11:20:28;;;;;;;5.78;1.95;;;20.60;99.70;;;;;;6132422;23;20017;-87
2023/08/26 11:22:55;;;;;;;7.38;1.65;;;20.60;99.90;;;;;;6132750;23;20024;-87
2023/08/26 11:25:20;;;;;;;8.07;1.80;;;20.60;99.50;;;;;;6157751;23;20024;-87
2023/08/26 11:27:46;;;;;;;7.90;1.77;;;20.60;99.00;;;;;;6156691;23;20017;-87
2023/08/26 11:30:12;;;;;;;7.57;1.77;;;20.50;98.80;;;;;;6157362;23;20013;-87
2023/08/26 11:32:40;;;;;;;6.95;1.73;;;20.50;99.20;;;;;;6131511;23;20518;-87
2023/08/26 11:35:10;;;;;;;6.60;1.70;;;20.60;99.90;;;;;;6157902;23;20044;-87
2023/08/26 11:37:40;;;;;;;7.18;1.50;;;20.70;99.90;;;;;;6132622;23;20005;-86
2023/08/26 11:40:07;;;;;;;6.45;1.48;;;20.80;99.90;;;;;;6131793;23;20024;-86
2023/08/26 11:42:32;;;;;;;4.78;1.40;;;20.90;99.90;;;;;;6156578;23;20044;-86
2023/08/26 11:44:58;;;;;;;6.35;1.35;;;20.70;98.80;;;;;;6133376;23;20103;-86
2023/08/26 11:47:24;;;;;;;4.22;1.25;;;20.60;99.90;;;;;;6157106;23;20009;-87
2023/08/26 11:49:55;;;;;;;6.15;1.67;;;20.60;99.90;;;;;;6157035;23;20013;-86
2023/08/26 11:52:22;;;;;;;5.28;1.40;;;20.70;99.90;;;;;;6132441;23;20013;-86
2023/08/26 11:54:52;;;;;;;5.07;1.40;;;20.70;99.90;;;;;;6157066;23;20009;-87
2023/08/26 11:57:22;;;;;;;6.53;1.35;;;20.90;99.90;;;;;;6157330;23;20062;-86
2023/08/26 11:59:48;;;;;;;7.28;1.60;;;21.00;96.70;;;;;;6132062;23;20051;-86
2023/08/26 12:02:24;;;;;;;6.03;1.23;;;21.00;95.80;;;;;;6157111;23;20017;-86
2023/08/26 12:04:59;;;;;;;5.00;1.30;;;21.20;99.90;;;;;;6133230;23;20016;-87
2023/08/26 12:07:26;;;;;;;5.75;1.20;;;21.30;99.00;;;;;;6157231;23;20024;-86
2023/08/26 12:09:52;;;;;;;4.97;1.30;;;21.40;95.10;;;;;;6132031;23;20060;-87
2023/08/26 12:12:20;;;;;;;4.82;1.40;;;21.40;92.20;;;;;;6157243;23;20013;-86
2023/08/26 12:14:46;;;;;;;5.45;1.30;;;21.30;92.40;;;;;;6157169;23;20013;-86
2023/08/26 12:17:12;;;;;;;5.18;1.20;;;21.40;94.50;;;;;;6157769;23;20045;-86
2023/08/26 12:19:40;;;;;;;4.63;1.15;;;21.50;94.70;;;;;;6156270;23;20013;-87
2023/08/26 12:22:07;;;;;;;4.75;1.40;;;21.60;94.90;;;;;;6129496;23;20013;-87
2023/08/26 12:24:38;;;;;;;7.45;1.30;;;21.70;92.90;;;;;;6154409;23;20020;-86
2023/08/26 12:27:09;;;;;;;5.57;1.27;;;21.70;90.90;;;;;;6129425;23;20016;-87
2023/08/26 12:29:35;;;;;;;3.85;1.20;;;21.70;91.40;;;;;;6129134;23;20028;-87
2023/08/26 12:32:01;;;;;;;5.15;1.25;;;21.90;91.90;;;;;;6154088;23;20120;-87